Time;durP1;ratioP1;P1;durP2;ratioP2;P2;SDS_P1;SDS_P2;PMS_P1;PMS_P2;Temp;Humidity;BMP_temperature;BMP_pressure;BME280_temperature;BME280_humidity;BME280_pressure;Samples;Min_cycle;Max_cycle;Signal;HPM_P1;HPM_P2
2023/05/10 04:13:10;;;;;;;6.68;5.05;;;;;;;10.44;100.00;100505.53;5592477;31;374829;-87
2023/05/10 04:16:19;;;;;;;5.78;5.15;;;;;;;10.47;100.00;100494.78;5582093;31;33612;-87
2023/05/10 04:19:32;;;;;;;6.93;5.00;;;;;;;10.59;100.00;100501.28;5582529;31;34685;-87
2023/05/10 04:22:40;;;;;;;10.00;5.72;;;;;;;10.75;99.67;100494.31;5581959;31;33416;-87
2023/05/10 04:25:48;;;;;;;6.50;4.95;;;;;;;10.83;97.97;100493.09;5581813;32;34371;-87
2023/05/10 04:28:57;;;;;;;7.18;5.62;;;;;;;10.93;98.29;100499.66;5582014;32;33732;-87
2023/05/10 04:32:04;;;;;;;5.43;4.93;;;;;;;10.99;97.63;100499.38;5581508;31;33515;-87
2023/05/10 04:35:14;;;;;;;7.75;5.28;;;;;;;11.07;96.78;100501.66;5581682;31;33997;-91
2023/05/10 04:38:22;;;;;;;5.72;5.22;;;;;;;11.12;95.80;100507.56;5581697;31;33978;-92
2023/05/10 04:41:31;;;;;;;5.65;4.95;;;;;;;11.05;94.53;100508.81;5581873;31;34339;-88
2023/05/10 04:44:38;;;;;;;7.68;5.15;;;;;;;11.04;95.80;100509.75;5581760;32;34664;-88
2023/05/10 04:47:46;;;;;;;6.87;5.30;;;;;;;10.98;96.85;100505.63;5581437;32;33717;-88
2023/05/10 04:50:53;;;;;;;6.75;5.55;;;;;;;11.03;96.13;100503.56;5581530;32;35099;-87
2023/05/10 04:54:00;;;;;;;14.70;5.45;;;;;;;11.01;97.09;100510.75;5581524;31;34311;-87
2023/05/10 04:57:12;;;;;;;7.87;5.53;;;;;;;11.09;95.35;100502.41;5581262;31;33541;-87
2023/05/10 05:00:19;;;;;;;8.10;6.00;;;;;;;11.23;94.98;100498.19;5581912;31;34430;-86
2023/05/10 05:03:25;;;;;;;9.52;5.50;;;;;;;11.43;94.94;100500.69;5566482;32;34403;-87
2023/05/10 05:06:31;;;;;;;7.37;5.62;;;;;;;11.53;93.19;100510.84;5565112;32;33921;-88
2023/05/10 05:09:38;;;;;;;9.07;6.05;;;;;;;11.53;92.27;100505.53;5562353;32;34741;-88
2023/05/10 05:12:42;;;;;;;6.78;5.75;;;;;;;11.62;91.22;100509.53;5562307;32;33442;-88
2023/05/10 05:15:48;;;;;;;5.80;5.30;;;;;;;11.82;91.23;100506.66;5571592;31;33779;-88
2023/05/10 05:18:54;;;;;;;7.35;5.78;;;;;;;12.13;89.58;100506.88;5565386;31;33799;-86
2023/05/10 05:21:59;;;;;;;8.27;5.87;;;;;;;12.37;88.23;100498.50;5570133;32;34697;-86
2023/05/10 05:25:06;;;;;;;7.18;5.45;;;;;;;12.56;86.64;100514.28;5562231;32;34455;-88
2023/05/10 05:28:13;;;;;;;6.37;5.72;;;;;;;12.22;86.53;100509.00;5550643;32;34815;-87
2023/05/10 05:31:20;;;;;;;8.38;5.72;;;;;;;12.23;85.84;100515.22;5549320;32;34002;-87
2023/05/10 05:34:26;;;;;;;10.38;6.22;;;;;;;12.19;85.85;100518.97;5557166;31;34132;-88
2023/05/10 05:37:34;;;;;;;8.60;5.70;;;;;;;12.19;86.98;100516.31;5566822;32;33790;-87
2023/05/10 05:40:43;;;;;;;8.18;5.80;;;;;;;12.69;84.87;100526.88;5562829;32;34581;-86
2023/05/10 05:43:50;;;;;;;6.47;5.60;;;;;;;13.14;82.77;100519.91;5549985;32;33995;-86
2023/05/10 05:46:57;;;;;;;5.68;5.15;;;;;;;13.92;78.24;100528.63;5552074;32;33953;-89
2023/05/10 05:50:04;;;;;;;8.32;5.45;;;;;;;14.44;75.18;100531.69;5553294;32;35205;-93
2023/05/10 05:53:12;;;;;;;10.25;5.90;;;;;;;14.42;73.74;100537.12;5564040;32;34603;-87
2023/05/10 05:56:24;;;;;;;6.80;5.47;;;;;;;15.05;71.24;100530.50;5557392;32;34470;-89
2023/05/10 05:59:29;;;;;;;9.23;5.83;;;;;;;14.85;72.18;100537.12;5549887;32;33690;-87
2023/05/10 06:02:38;;;;;;;9.07;5.43;;;;;;;14.66;70.98;100541.84;5566414;31;33994;-87
2023/05/10 06:05:46;;;;;;;6.93;5.12;;;;;;;14.72;70.05;100537.91;5570019;31;34307;-86
2023/05/10 06:08:54;;;;;;;7.20;5.65;;;;;;;15.05;69.33;100543.84;5555600;31;34444;-86
2023/05/10 06:12:03;;;;;;;9.48;4.93;;;;;;;15.59;67.69;100544.75;5568354;32;35244;-86
2023/05/10 06:15:10;;;;;;;7.05;5.95;;;;;;;16.33;64.34;100538.75;5558748;31;34485;-85
2023/05/10 06:18:18;;;;;;;9.93;5.68;;;;;;;16.60;61.52;100537.72;5567026;31;33765;-85
2023/05/10 06:21:26;;;;;;;7.70;5.07;;;;;;;17.28;58.51;100541.75;5561639;31;34554;-86
2023/05/10 06:24:37;;;;;;;8.38;5.25;;;;;;;17.22;60.21;100541.25;5562634;31;33530;-86
2023/05/10 06:27:45;;;;;;;11.35;5.47;;;;;;;18.03;55.63;100534.25;5558877;32;35558;-87
2023/05/10 06:30:58;;;;;;;6.35;5.30;;;;;;;16.83;59.98;100543.22;5575775;31;33755;-87
2023/05/10 06:34:08;;;;;;;9.43;5.12;;;;;;;16.37;62.60;100537.56;5579453;31;33712;-86
2023/05/10 06:37:14;;;;;;;7.60;5.55;;;;;;;16.01;63.69;100548.13;5566082;31;33458;-87
2023/05/10 06:40:22;;;;;;;8.98;6.00;;;;;;;15.31;66.57;100549.25;5566572;31;33857;-87
2023/05/10 06:43:30;;;;;;;8.73;5.60;;;;;;;15.24;68.48;100559.50;5559006;31;33922;-86
2023/05/10 06:46:37;;;;;;;11.10;5.20;;;;;;;15.17;68.37;100556.41;5560313;31;35203;-87
2023/05/10 06:49:42;;;;;;;9.25;5.68;;;;;;;15.71;68.10;100540.34;5549870;32;34739;-90
2023/05/10 06:52:45;;;;;;;9.07;6.20;;;;;;;15.38;68.61;100549.72;5565532;31;34018;-90
2023/05/10 06:56:13;;;;;;;9.48;5.87;;;;;;;15.43;67.94;100542.25;5559445;31;34826;-86
2023/05/10 06:59:19;;;;;;;9.15;5.70;;;;;;;16.51;64.83;100546.44;5566893;31;34483;-85
2023/05/10 07:02:25;;;;;;;8.95;5.60;;;;;;;16.94;62.70;100545.09;5581442;31;33939;-86
2023/05/10 07:05:32;;;;;;;6.43;5.50;;;;;;;16.10;64.44;100543.91;5551909;31;33804;-87
2023/05/10 07:08:41;;;;;;;6.22;5.68;;;;;;;15.65;66.72;100547.00;5549087;32;33597;-86
2023/05/10 07:11:47;;;;;;;40.28;6.97;;;;;;;15.70;67.56;100549.34;5547821;32;33770;-86
2023/05/10 07:14:55;;;;;;;10.25;5.95;;;;;;;16.21;66.44;100543.16;5548232;32;34223;-85
2023/05/10 07:17:59;;;;;;;5.97;5.37;;;;;;;16.02;67.32;100543.59;5548916;32;33733;-85
2023/05/10 07:21:06;;;;;;;6.32;5.30;;;;;;;16.44;65.45;100540.66;5548871;32;33051;-86
2023/05/10 07:24:15;;;;;;;10.25;5.78;;;;;;;16.34;65.28;100540.44;5555110;32;33990;-86
2023/05/10 07:27:19;;;;;;;6.57;5.50;;;;;;;16.11;64.45;100542.97;5568403;32;33689;-86
2023/05/10 07:30:25;;;;;;;5.85;5.10;;;;;;;16.40;65.45;100537.34;5569209;32;33696;-86
2023/05/10 07:33:32;;;;;;;6.43;5.70;;;;;;;16.36;64.93;100533.19;5568495;32;34204;-86
2023/05/10 07:36:38;;;;;;;8.38;5.25;;;;;;;16.68;62.79;100526.44;5568398;32;33701;-86
2023/05/10 07:39:42;;;;;;;7.47;5.78;;;;;;;16.91;61.59;100538.16;5568749;32;33734;-86
2023/05/10 07:42:48;;;;;;;16.02;5.07;;;;;;;16.88;61.52;100534.81;5574129;32;33601;-84
2023/05/10 07:45:57;;;;;;;5.97;4.80;;;;;;;17.75;60.73;100525.69;5574283;32;33945;-84
2023/05/10 07:49:04;;;;;;;8.18;5.45;;;;;;;18.12;60.34;100524.63;5572313;32;33685;-84
2023/05/10 07:52:14;;;;;;;6.32;5.65;;;;;;;17.77;58.10;100527.25;5570124;32;34165;-85
2023/05/10 07:55:22;;;;;;;16.52;6.00;;;;;;;17.96;58.56;100516.91;5570334;32;33874;-85
2023/05/10 07:58:30;;;;;;;6.57;5.50;;;;;;;17.83;57.94;100523.25;5568735;32;33534;-89
2023/05/10 08:01:36;;;;;;;8.82;5.05;;;;;;;17.76;58.62;100522.84;5572644;32;33696;-88
2023/05/10 08:04:43;;;;;;;6.10;4.47;;;;;;;18.39;56.72;100528.75;5565897;31;34367;-85
2023/05/10 08:07:50;;;;;;;7.82;4.80;;;;;;;18.04;57.77;100530.56;5563148;31;33806;-84
2023/05/10 08:10:58;;;;;;;9.75;5.25;;;;;;;19.14;56.68;100526.28;5550402;31;34023;-85
2023/05/10 08:14:02;;;;;;;5.18;4.50;;;;;;;18.79;54.99;100528.22;5555363;31;34389;-84
2023/05/10 08:17:09;;;;;;;5.97;4.32;;;;;;;18.82;55.60;100533.31;5552636;32;34058;-84
2023/05/10 08:20:18;;;;;;;10.00;4.57;;;;;;;18.90;56.20;100526.47;5551792;32;34605;-85
2023/05/10 08:23:23;;;;;;;7.97;4.82;;;;;;;18.47;56.66;100520.97;5564371;31;34501;-85
2023/05/10 08:26:29;;;;;;;7.93;4.20;;;;;;;18.16;56.01;100518.87;5551491;32;33719;-84
2023/05/10 08:29:35;;;;;;;8.38;4.12;;;;;;;17.90;56.58;100531.66;5554107;32;34115;-84
2023/05/10 08:32:53;;;;;;;4.75;4.28;;;;;;;19.37;51.98;100531.56;5550683;32;33934;-85
2023/05/10 08:35:56;;;;;;;5.65;4.57;;;;;;;18.40;54.28;100530.50;5549594;32;33695;-84
2023/05/10 08:39:02;;;;;;;7.00;4.78;;;;;;;18.26;54.88;100523.53;5550871;32;33729;-84
2023/05/10 08:42:08;;;;;;;4.72;4.25;;;;;;;17.55;57.16;100525.37;5549134;32;33492;-85
2023/05/10 08:45:13;;;;;;;4.80;4.07;;;;;;;17.85;56.44;100531.19;5551316;32;34778;-85
2023/05/10 08:48:22;;;;;;;4.78;4.35;;;;;;;18.51;54.59;100517.03;5561635;31;34538;-84
2023/05/10 08:51:29;;;;;;;6.43;4.62;;;;;;;18.91;53.91;100530.88;5580430;31;33480;-85
2023/05/10 08:54:34;;;;;;;7.62;4.53;;;;;;;19.08;52.32;100524.13;5591269;31;34514;-84
2023/05/10 08:57:40;;;;;;;5.45;4.62;;;;;;;19.55;51.14;100522.91;5586807;31;33987;-85
2023/05/10 09:00:46;;;;;;;5.87;4.70;;;;;;;19.30;51.31;100523.16;5576901;31;33850;-86
2023/05/10 09:03:52;;;;;;;5.43;4.30;;;;;;;20.42;48.58;100523.50;5569018;31;33857;-84
2023/05/10 09:06:59;;;;;;;4.00;3.60;;;;;;;20.77;47.54;100516.75;5573095;32;34399;-85
2023/05/10 09:10:05;;;;;;;4.93;4.12;;;;;;;21.75;46.25;100518.63;5572537;32;33464;-84
2023/05/10 09:13:17;;;;;;;4.30;3.90;;;;;;;21.27;44.20;100514.97;5574730;31;34796;-90
2023/05/10 09:16:24;;;;;;;5.62;4.70;;;;;;;21.73;45.25;100517.06;5589868;31;33701;-86
2023/05/10 09:19:27;;;;;;;4.62;3.70;;;;;;;22.23;42.68;100525.84;5575691;31;34001;-85
2023/05/10 09:22:34;;;;;;;3.75;3.45;;;;;;;21.94;44.06;100520.38;5573650;32;33823;-85
2023/05/10 09:25:41;;;;;;;4.50;4.10;;;;;;;20.99;44.07;100523.78;5572552;32;34005;-85
2023/05/10 09:28:56;;;;;;;5.20;3.55;;;;;;;21.42;43.83;100515.37;5569409;31;33763;-84
2023/05/10 09:32:02;;;;;;;4.05;3.60;;;;;;;22.17;42.40;100513.78;5573572;32;33823;-83
2023/05/10 09:35:17;;;;;;;4.35;3.50;;;;;;;22.65;41.61;100513.69;5574007;31;33889;-83
2023/05/10 09:38:24;;;;;;;3.95;3.62;;;;;;;23.36;39.38;100514.72;5568931;31;33877;-84
2023/05/10 09:41:34;;;;;;;5.35;3.53;;;;;;;23.96;37.86;100514.94;5574322;32;33974;-84
2023/05/10 09:44:43;;;;;;;4.50;4.10;;;;;;;23.26;38.53;100509.38;5578900;31;34383;-84
2023/05/10 09:47:50;;;;;;;7.55;3.80;;;;;;;24.03;36.63;100507.03;5577729;31;35459;-83
2023/05/10 09:50:59;;;;;;;4.50;3.65;;;;;;;24.62;34.96;100507.09;5568888;31;34925;-84
2023/05/10 09:54:14;;;;;;;4.10;3.75;;;;;;;24.33;35.44;100505.66;5571657;31;33166;-83
2023/05/10 09:57:21;;;;;;;5.30;3.80;;;;;;;22.72;38.21;100499.41;5567456;31;33825;-83
2023/05/10 10:00:27;;;;;;;5.57;3.70;;;;;;;21.52;41.26;100496.50;5588789;31;33962;-83
2023/05/10 10:03:32;;;;;;;3.72;3.42;;;;;;;22.62;40.28;100494.06;5561952;31;33946;-83
2023/05/10 10:06:38;;;;;;;4.75;3.65;;;;;;;23.01;39.17;100497.47;5576839;31;33832;-84
2023/05/10 10:09:44;;;;;;;4.28;3.50;;;;;;;22.38;40.72;100491.06;5575811;32;33884;-84
2023/05/10 10:12:49;;;;;;;6.32;3.83;;;;;;;22.74;40.03;100491.97;5570296;32;33681;-84
2023/05/10 10:15:54;;;;;;;3.53;3.10;;;;;;;23.69;38.79;100479.75;5565915;31;33915;-88
2023/05/10 10:19:00;;;;;;;3.95;3.65;;;;;;;23.61;37.85;100486.97;5580051;31;34139;-88
2023/05/10 10:22:07;;;;;;;8.10;3.78;;;;;;;21.60;40.17;100479.53;5574503;31;33562;-85
2023/05/10 10:25:13;;;;;;;3.60;3.30;;;;;;;21.86;40.59;100478.91;5571706;31;34251;-84
2023/05/10 10:28:33;;;;;;;3.83;3.47;;;;;;;21.87;40.40;100478.78;5582491;31;34570;-85
2023/05/10 10:31:47;;;;;;;4.43;2.97;;;;;;;23.65;37.17;100466.69;5569034;31;34270;-85
2023/05/10 10:34:56;;;;;;;6.15;3.20;;;;;;;27.97;30.80;100470.97;5577524;31;34720;-85
2023/05/10 10:38:00;;;;;;;3.60;3.30;;;;;;;26.92;29.99;100487.97;5571070;31;33956;-85
2023/05/10 10:41:11;;;;;;;4.28;3.12;;;;;;;23.61;35.50;100468.88;5572628;31;33754;-86
2023/05/10 10:44:33;;;;;;;3.90;3.20;;;;;;;23.21;37.12;100473.81;5586482;31;33901;-85
2023/05/10 10:47:39;;;;;;;4.12;3.30;;;;;;;21.23;40.40;100448.81;5568824;31;35357;-85
2023/05/10 10:50:46;;;;;;;6.68;3.30;;;;;;;21.21;40.66;100458.88;5557883;31;33544;-85
2023/05/10 10:53:49;;;;;;;3.15;2.95;;;;;;;21.44;39.65;100456.72;5567435;31;33658;-87
2023/05/10 10:57:14;;;;;;;5.45;3.67;;;;;;;20.98;40.51;100449.25;5569185;31;32678;-85
2023/05/10 11:00:23;;;;;;;5.30;3.03;;;;;;;20.46;43.24;100436.00;5554677;31;34467;-86
2023/05/10 11:03:28;;;;;;;6.18;2.85;;;;;;;20.79;42.84;100443.84;5572555;31;33754;-86
2023/05/10 11:06:33;;;;;;;9.52;3.05;;;;;;;21.00;40.81;100435.62;5583125;31;34540;-86
2023/05/10 11:09:40;;;;;;;2.83;2.62;;;;;;;23.14;36.65;100433.00;5576664;31;33959;-87
2023/05/10 11:13:12;;;;;;;3.42;2.85;;;;;;;22.84;36.10;100428.88;5568466;31;34074;-91
2023/05/10 11:16:29;;;;;;;4.10;2.87;;;;;;;21.96;37.97;100427.59;5552491;31;33942;-87
2023/05/10 11:19:34;;;;;;;2.90;2.70;;;;;;;21.26;39.18;100419.69;5556702;31;33940;-87
2023/05/10 11:23:10;;;;;;;6.60;2.80;;;;;;;20.78;40.28;100417.88;5574187;31;35004;-87
2023/05/10 11:26:13;;;;;;;4.00;2.80;;;;;;;20.47;41.46;100417.00;5572213;31;34145;-86
2023/05/10 11:29:17;;;;;;;4.45;3.08;;;;;;;20.35;42.16;100407.34;5562832;31;34657;-87
2023/05/10 11:32:21;;;;;;;4.40;2.83;;;;;;;21.21;41.62;100402.22;5574600;31;33540;-87
2023/05/10 11:35:29;;;;;;;2.83;2.62;;;;;;;21.57;40.08;100407.81;5570513;31;33570;-87
2023/05/10 11:38:34;;;;;;;3.75;2.90;;;;;;;21.06;40.08;100397.31;5581178;31;34149;-87
2023/05/10 11:41:40;;;;;;;3.95;2.67;;;;;;;20.85;40.78;100403.72;5575109;31;34495;-87
2023/05/10 11:44:47;;;;;;;3.00;2.60;;;;;;;20.45;40.03;100394.75;5567864;31;33428;-86
2023/05/10 11:47:57;;;;;;;3.35;2.78;;;;;;;20.83;39.22;100394.06;5569384;31;33773;-86
2023/05/10 11:51:02;;;;;;;2.80;2.55;;;;;;;20.06;40.84;100405.44;5566817;31;33448;-86
2023/05/10 11:54:10;;;;;;;4.93;2.80;;;;;;;19.78;41.61;100400.66;5565268;31;34430;-85
2023/05/10 11:57:15;;;;;;;4.28;3.10;;;;;;;19.42;42.04;100391.31;5566899;31;33983;-86
2023/05/10 12:00:21;;;;;;;3.05;2.75;;;;;;;19.26;42.03;100401.56;5574551;31;34754;-85
2023/05/10 12:03:27;;;;;;;3.58;2.50;;;;;;;18.66;44.11;100401.25;5582246;31;33797;-85
2023/05/10 12:06:40;;;;;;;4.03;2.87;;;;;;;18.63;44.97;100404.19;5585428;31;34690;-89
2023/05/10 12:10:08;;;;;;;5.87;3.10;;;;;;;18.34;45.67;100408.31;5579946;31;34203;-85
2023/05/10 12:13:15;;;;;;;21.52;3.45;;;;;;;18.55;46.09;100402.13;5570347;31;33566;-86
2023/05/10 12:16:23;;;;;;;4.78;2.78;;;;;;;18.56;45.44;100399.31;5562531;31;33823;-86
2023/05/10 12:19:28;;;;;;;4.00;2.75;;;;;;;18.98;45.36;100393.16;5568472;31;35043;-85
2023/05/10 12:22:34;;;;;;;3.70;2.83;;;;;;;19.12;43.71;100394.66;5571656;31;33977;-86
2023/05/10 12:25:40;;;;;;;3.15;2.75;;;;;;;18.80;43.24;100395.56;5563825;31;34419;-86
2023/05/10 12:28:46;;;;;;;3.42;2.62;;;;;;;19.07;43.95;100396.06;5566214;31;33818;-88
2023/05/10 12:31:59;;;;;;;3.87;2.70;;;;;;;19.29;42.89;100391.50;5562167;31;33704;-86
2023/05/10 12:35:04;;;;;;;2.87;2.67;;;;;;;19.36;42.41;100395.41;5570677;31;34086;-87
2023/05/10 12:38:30;;;;;;;5.47;2.70;;;;;;;19.32;43.12;100378.69;5570740;31;34730;-86
2023/05/10 12:41:36;;;;;;;4.90;2.80;;;;;;;19.34;44.45;100374.00;5571513;31;34640;-86
2023/05/10 12:44:40;;;;;;;3.85;2.60;;;;;;;19.12;44.28;100386.59;5586737;31;34036;-86
2023/05/10 12:47:45;;;;;;;6.70;2.65;;;;;;;19.05;44.07;100379.22;5570661;31;33847;-86
2023/05/10 12:50:50;;;;;;;5.80;2.60;;;;;;;19.42;44.25;100385.94;5570437;31;33944;-86
2023/05/10 12:53:58;;;;;;;2.47;2.28;;;;;;;19.22;43.40;100367.84;5574264;31;34745;-85
2023/05/10 12:57:03;;;;;;;3.83;2.45;;;;;;;19.31;43.83;100368.03;5571788;31;34802;-87
2023/05/10 13:00:11;;;;;;;3.20;2.50;;;;;;;18.93;44.43;100373.88;5573266;31;33859;-86
2023/05/10 13:03:15;;;;;;;2.92;2.40;;;;;;;18.83;45.07;100368.44;5581910;31;33728;-86
2023/05/10 13:06:23;;;;;;;10.65;2.97;;;;;;;19.13;44.53;100358.72;5574750;31;34487;-91
2023/05/10 13:09:30;;;;;;;2.60;2.40;;;;;;;19.24;46.00;100346.19;5571519;31;34261;-90
2023/05/10 13:12:36;;;;;;;2.95;2.65;;;;;;;18.91;45.01;100356.19;5569484;31;33643;-86
2023/05/10 13:15:42;;;;;;;4.70;2.65;;;;;;;18.70;44.94;100348.94;5559705;32;33747;-86
2023/05/10 13:18:50;;;;;;;2.58;2.37;;;;;;;18.78;45.20;100351.84;5572633;31;33882;-87
2023/05/10 13:21:58;;;;;;;3.28;2.30;;;;;;;18.93;44.26;100338.06;5574479;31;33875;-87
2023/05/10 13:25:05;;;;;;;3.12;2.28;;;;;;;18.76;44.17;100350.28;5572621;31;33637;-87
2023/05/10 13:28:14;;;;;;;2.22;2.03;;;;;;;18.42;43.72;100338.69;5575741;31;33512;-88
2023/05/10 13:31:26;;;;;;;2.47;2.00;;;;;;;18.36;42.99;100335.69;5581636;31;33697;-87
2023/05/10 13:34:31;;;;;;;5.45;2.35;;;;;;;18.94;42.88;100320.97;5572955;31;32560;-87
2023/05/10 13:37:41;;;;;;;3.58;2.33;;;;;;;19.13;42.76;100317.56;5579673;31;33750;-88
2023/05/10 13:40:52;;;;;;;5.87;2.40;;;;;;;19.18;42.79;100318.03;5587324;31;33409;-88
2023/05/10 13:44:03;;;;;;;4.68;2.30;;;;;;;18.85;43.97;100311.84;5588428;31;33648;-87
2023/05/10 13:47:11;;;;;;;2.60;2.20;;;;;;;19.51;42.73;100309.81;5589077;31;33905;-88
2023/05/10 13:50:21;;;;;;;3.78;2.30;;;;;;;19.64;42.07;100317.63;5589529;31;33583;-88
2023/05/10 13:53:29;;;;;;;3.92;2.10;;;;;;;19.27;42.35;100316.38;5588932;31;33448;-87
2023/05/10 13:56:38;;;;;;;2.87;2.37;;;;;;;19.12;41.43;100316.72;5589900;31;34414;-87
2023/05/10 13:59:45;;;;;;;4.93;1.95;;;;;;;19.31;41.29;100309.72;5588959;31;33850;-87
2023/05/10 14:02:52;;;;;;;2.40;2.20;;;;;;;19.22;40.78;100303.31;5589476;31;34265;-87
2023/05/10 14:05:58;;;;;;;8.68;2.15;;;;;;;18.78;42.59;100286.50;5589243;31;35685;-87
2023/05/10 14:09:05;;;;;;;5.95;2.22;;;;;;;19.05;41.42;100291.34;5568330;26;34162;-90
2023/05/10 14:12:11;;;;;;;3.83;2.12;;;;;;;19.76;41.06;100291.47;5537089;32;33798;-92
2023/05/10 14:15:18;;;;;;;2.10;1.90;;;;;;;19.67;41.32;100288.59;5534986;32;33930;-89
2023/05/10 14:18:26;;;;;;;2.53;2.20;;;;;;;19.69;40.70;100276.84;5531254;32;33634;-89
2023/05/10 14:21:33;;;;;;;2.95;2.08;;;;;;;19.51;41.11;100278.38;5529308;32;34617;-89
2023/05/10 14:24:46;;;;;;;2.10;1.90;;;;;;;19.82;40.28;100276.59;5529177;32;33539;-88
2023/05/10 14:27:54;;;;;;;2.90;1.98;;;;;;;20.23;39.20;100282.75;5530053;32;33657;-89
2023/05/10 14:31:01;;;;;;;2.40;2.20;;;;;;;19.89;39.16;100275.91;5530975;32;33974;-88
2023/05/10 14:34:18;;;;;;;2.22;2.00;;;;;;;20.05;39.08;100266.44;5532848;32;34494;-90
2023/05/10 14:37:30;;;;;;;2.95;1.92;;;;;;;20.08;37.69;100270.69;5532037;32;34059;-89
2023/05/10 14:40:37;;;;;;;1.90;1.80;;;;;;;20.02;37.80;100272.94;5529974;32;33773;-89
2023/05/10 14:43:48;;;;;;;3.58;1.67;;;;;;;19.83;36.72;100268.38;5530521;32;34221;-88
2023/05/10 14:46:58;;;;;;;2.62;2.40;;;;;;;19.74;37.88;100275.44;5528901;32;34714;-88
2023/05/10 14:50:06;;;;;;;4.40;2.12;;;;;;;19.42;40.78;100278.34;5537147;32;34562;-89
2023/05/10 14:53:11;;;;;;;5.22;2.37;;;;;;;19.03;41.96;100284.41;5547209;32;34237;-89
2023/05/10 14:56:21;;;;;;;4.05;1.90;;;;;;;18.96;42.27;100276.00;5541107;32;33852;-88
2023/05/10 14:59:29;;;;;;;3.90;2.30;;;;;;;18.72;42.32;100275.28;5559028;32;34370;-89
2023/05/10 15:02:38;;;;;;;4.45;2.12;;;;;;;18.50;42.36;100281.66;5548616;32;34797;-88
2023/05/10 15:05:45;;;;;;;6.37;2.33;;;;;;;18.19;43.03;100273.50;5546320;32;33958;-89
2023/05/10 15:08:52;;;;;;;4.05;2.05;;;;;;;18.11;43.18;100278.66;5549969;32;33866;-89
2023/05/10 15:12:00;;;;;;;2.35;2.15;;;;;;;18.08;42.72;100278.91;5547580;32;34134;-89
2023/05/10 15:15:09;;;;;;;4.90;1.62;;;;;;;17.95;43.05;100281.75;5531726;32;33427;-89
2023/05/10 15:22:02;;;;;;;3.83;1.58;;;;;;;17.76;42.19;100285.94;4998855;26;20122;-88
2023/05/10 15:25:10;;;;;;;2.65;1.90;;;;;;;17.51;41.84;100275.34;5608140;26;33725;-88
2023/05/10 15:28:21;;;;;;;3.95;1.80;;;;;;;17.51;42.07;100271.84;5530789;32;34463;-88
2023/05/10 15:35:10;;;;;;;2.72;1.95;;;;;;;17.55;42.17;100277.81;4994216;26;20086;-88
